Terminal Aerodrome Forecast
Issued by NWS

Home | Current Version | Previous Version | Text Only | Print | Product List | Glossary On
Versions: 1 2 3 4 5 6 7 8 9 10 11 12
507
FTUS46 KSTO 051144
TAFRDD
TAF
KRDD 051144Z 0512/0612 30002KT 4SM BR SKC
      TEMPO 0513/0516 2SM BCFG BR BKN002
     FM051800 33004KT P6SM SCT050 SCT250
     FM060100 VRB03KT P6SM SCT250=

USA.gov is the U.S. government's official web portal to all federal, state and local government web resources and services.